Terminal Aerodrome Forecast
Issued by NWS

Home | Current Version | Previous Version | Text Only | Print | Product List | Glossary On
Versions: 1 2 3 4 5 6 7 8 9 10 11 12
000
FTUS42 KTAE 261120
TAFVLD
TAF
KVLD 261120Z 2612/2712 17003KT P6SM FEW250
     FM261800 09005KT P6SM SCT070 SCT250
     FM270100 15004KT P6SM SCT250=

USA.gov is the U.S. government's official web portal to all federal, state and local government web resources and services.